Time;durP1;ratioP1;P1;durP2;ratioP2;P2;SDS_P1;SDS_P2;PMS_P1;PMS_P2;Temp;Humidity;BMP_temperature;BMP_pressure;BME280_temperature;BME280_humidity;BME280_pressure;Samples;Min_cycle;Max_cycle;Signal;HPM_P1;HPM_P2
2021/12/12 00:02:09;;;;;;;0.80;0.80;;;2.70;99.90;;;;;;5066767;28;20055;-87
2021/12/12 00:04:37;;;;;;;1.05;1.05;;;2.70;99.90;;;;;;5066606;28;20043;-88
2021/12/12 00:07:07;;;;;;;2.08;1.80;;;2.70;99.90;;;;;;5050542;28;20041;-87
2021/12/12 00:09:42;;;;;;;0.80;0.80;;;2.70;99.90;;;;;;5041513;28;20092;-88
2021/12/12 00:12:17;;;;;;;1.60;1.50;;;2.70;99.90;;;;;;5073006;28;20460;-88
2021/12/12 00:14:43;;;;;;;1.20;1.10;;;2.70;99.90;;;;;;5050214;28;20055;-88
2021/12/12 00:17:11;;;;;;;1.60;1.50;;;2.80;99.90;;;;;;5067230;28;20044;-88
2021/12/12 00:19:38;;;;;;;2.88;2.08;;;2.80;99.90;;;;;;5067214;28;20090;-87
2021/12/12 00:22:08;;;;;;;0.90;0.90;;;2.80;99.90;;;;;;5069951;28;20050;-88
2021/12/12 00:24:35;;;;;;;1.70;1.60;;;2.80;99.90;;;;;;5054288;28;20400;-89
2021/12/12 00:27:01;;;;;;;1.02;1.00;;;2.80;99.90;;;;;;5051255;28;20090;-88
2021/12/12 00:29:28;;;;;;;1.40;1.30;;;2.80;99.90;;;;;;5046954;28;20862;-89
2021/12/12 00:31:59;;;;;;;3.13;1.95;;;2.80;99.90;;;;;;5050210;28;20056;-88
2021/12/12 00:34:27;;;;;;;1.20;1.10;;;2.80;99.90;;;;;;5077743;28;20040;-87
2021/12/12 00:36:53;;;;;;;1.02;1.02;;;2.80;99.90;;;;;;5049801;28;20041;-88
2021/12/12 00:39:27;;;;;;;1.15;1.13;;;2.80;99.90;;;;;;5050270;28;20467;-87
2021/12/12 00:42:11;;;;;;;1.38;1.27;;;2.80;99.90;;;;;;5046276;28;20045;-87
2021/12/12 00:44:40;;;;;;;9.45;2.28;;;2.80;99.90;;;;;;5041145;28;20086;-88
2021/12/12 00:47:09;;;;;;;0.80;0.80;;;2.80;99.90;;;;;;5049056;28;20104;-87
2021/12/12 00:49:39;;;;;;;2.17;1.73;;;2.80;99.90;;;;;;5048752;28;20036;-88
2021/12/12 00:52:07;;;;;;;1.25;1.15;;;2.80;99.90;;;;;;5055760;28;20040;-88
2021/12/12 00:54:34;;;;;;;1.15;1.10;;;2.90;99.90;;;;;;5048218;28;20056;-88
2021/12/12 00:57:04;;;;;;;2.08;1.98;;;2.90;99.90;;;;;;5053553;28;20040;-88
2021/12/12 00:59:30;;;;;;;10.07;2.45;;;2.90;99.90;;;;;;5048563;28;20064;-88
2021/12/12 01:01:58;;;;;;;1.63;1.52;;;2.90;99.90;;;;;;5049049;28;20059;-87
2021/12/12 01:04:28;;;;;;;1.13;1.13;;;2.90;99.90;;;;;;5063581;28;20133;-87
2021/12/12 01:06:56;;;;;;;1.42;1.33;;;2.90;99.90;;;;;;5050741;28;20044;-88
2021/12/12 01:09:32;;;;;;;0.90;0.90;;;2.90;99.90;;;;;;5052543;28;20397;-87
2021/12/12 01:12:00;;;;;;;0.93;0.93;;;2.90;99.90;;;;;;5046413;28;20037;-87
2021/12/12 01:14:30;;;;;;;0.93;0.93;;;3.00;99.90;;;;;;5067282;28;20048;-88
2021/12/12 01:17:08;;;;;;;6.00;1.77;;;3.00;99.90;;;;;;5051603;28;20112;-88
2021/12/12 01:19:40;;;;;;;1.58;1.48;;;3.00;99.90;;;;;;5052164;28;20036;-88
2021/12/12 01:22:29;;;;;;;0.90;0.90;;;3.00;99.90;;;;;;5052324;28;20040;-87
2021/12/12 01:24:59;;;;;;;1.48;1.38;;;3.00;99.90;;;;;;5067806;28;20046;-88
2021/12/12 01:27:25;;;;;;;1.23;1.13;;;3.00;99.90;;;;;;5054971;28;20048;-88
2021/12/12 01:29:51;;;;;;;0.90;0.90;;;3.00;99.90;;;;;;5064896;28;20040;-88
2021/12/12 01:32:26;;;;;;;1.23;1.15;;;3.00;99.90;;;;;;5054436;28;20037;-88
2021/12/12 01:34:53;;;;;;;0.95;0.95;;;3.00;99.90;;;;;;5048739;28;20041;-88
2021/12/12 01:39:59;;;;;;;0.80;0.80;;;3.00;99.90;;;;;;5065652;28;20170;-88
2021/12/12 01:42:31;;;;;;;2.13;1.65;;;3.10;99.90;;;;;;5057341;28;20044;-88
2021/12/12 01:45:21;;;;;;;1.60;1.50;;;3.10;99.90;;;;;;5052894;28;20067;-88
2021/12/12 01:47:49;;;;;;;1.00;1.00;;;3.10;99.90;;;;;;5049982;28;20040;-88
2021/12/12 01:50:21;;;;;;;2.05;1.77;;;3.20;99.90;;;;;;5056123;28;20031;-89
2021/12/12 01:52:48;;;;;;;1.10;1.10;;;3.10;99.90;;;;;;5058059;28;20094;-88
2021/12/12 01:55:24;;;;;;;1.45;1.35;;;3.10;99.90;;;;;;5055363;28;20056;-88
2021/12/12 01:57:52;;;;;;;1.30;1.20;;;3.20;99.90;;;;;;5056247;28;20043;-88
2021/12/12 02:00:32;;;;;;;0.85;0.85;;;3.20;99.90;;;;;;5048972;28;20043;-88
2021/12/12 02:03:00;;;;;;;1.20;1.10;;;3.20;99.90;;;;;;5048902;28;20456;-88
2021/12/12 02:05:27;;;;;;;1.00;0.90;;;3.20;99.90;;;;;;5049314;28;20032;-89
2021/12/12 02:08:00;;;;;;;1.23;1.17;;;3.20;99.90;;;;;;5072154;28;20076;-88
2021/12/12 02:10:29;;;;;;;1.83;1.73;;;3.20;99.90;;;;;;5051249;28;20036;-88
2021/12/12 02:12:59;;;;;;;1.02;1.00;;;3.20;99.90;;;;;;5032721;28;20037;-88
2021/12/12 02:15:25;;;;;;;20.58;2.33;;;3.20;99.90;;;;;;5068764;28;20040;-89
2021/12/12 02:17:52;;;;;;;1.25;1.15;;;3.20;99.90;;;;;;5066964;28;20043;-88
2021/12/12 02:23:42;;;;;;;0.93;0.93;;;3.30;99.90;;;;;;5027772;28;20063;-88
2021/12/12 02:37:08;;;;;;;1.83;1.48;;;3.40;99.90;;;;;;5066005;28;20045;-89
2021/12/12 02:39:36;;;;;;;1.30;1.20;;;3.40;99.90;;;;;;5054454;28;20126;-89
2021/12/12 02:42:08;;;;;;;1.40;1.17;;;3.40;99.90;;;;;;5049680;28;20069;-89
2021/12/12 02:44:37;;;;;;;2.08;1.90;;;3.40;99.90;;;;;;5061987;28;20100;-89
2021/12/12 02:47:11;;;;;;;2.28;2.08;;;3.40;99.90;;;;;;5068930;28;20091;-88
2021/12/12 02:49:41;;;;;;;1.30;1.20;;;3.40;99.90;;;;;;5058185;28;20044;-89
2021/12/12 02:52:12;;;;;;;2.05;1.85;;;3.50;99.90;;;;;;5043802;28;20052;-89
2021/12/12 02:54:39;;;;;;;1.00;1.00;;;3.40;99.90;;;;;;5050482;28;20040;-89
2021/12/12 02:57:07;;;;;;;1.15;1.13;;;3.50;99.90;;;;;;5055903;28;20084;-89
2021/12/12 02:59:34;;;;;;;3.55;1.33;;;3.50;99.90;;;;;;5052452;28;20079;-88
2021/12/12 03:02:02;;;;;;;2.22;2.05;;;3.50;99.90;;;;;;5051163;28;20060;-89
2021/12/12 03:04:28;;;;;;;2.28;2.13;;;3.50;99.90;;;;;;5068103;28;20036;-89
2021/12/12 03:06:55;;;;;;;1.33;1.23;;;3.50;99.90;;;;;;5052324;28;20067;-90
2021/12/12 03:09:28;;;;;;;1.75;1.65;;;3.60;99.90;;;;;;5069597;28;20044;-89
2021/12/12 03:12:03;;;;;;;1.00;1.00;;;3.60;99.90;;;;;;5062921;28;20078;-88
2021/12/12 03:14:35;;;;;;;1.48;1.38;;;3.60;99.90;;;;;;5053285;28;20116;-88
2021/12/12 03:17:07;;;;;;;3.33;1.85;;;3.70;99.90;;;;;;5051860;28;20503;-88
2021/12/12 03:19:33;;;;;;;0.85;0.85;;;3.60;99.90;;;;;;5056416;28;20037;-87
2021/12/12 03:22:00;;;;;;;0.90;0.90;;;3.70;99.90;;;;;;5059245;28;20181;-88
2021/12/12 03:24:27;;;;;;;3.58;1.98;;;3.80;99.90;;;;;;5053870;28;20036;-88
2021/12/12 03:26:59;;;;;;;1.08;1.05;;;3.80;99.90;;;;;;5053719;28;20104;-87
2021/12/12 03:29:26;;;;;;;1.58;1.40;;;3.90;99.90;;;;;;5074021;28;20382;-89
2021/12/12 03:32:03;;;;;;;1.58;1.48;;;3.80;99.90;;;;;;5052429;28;20036;-89
2021/12/12 03:34:35;;;;;;;2.75;2.55;;;3.80;99.90;;;;;;5044841;28;20124;-90
2021/12/12 03:37:05;;;;;;;0.95;0.95;;;3.90;99.90;;;;;;5054370;28;20162;-89
2021/12/12 03:39:35;;;;;;;1.10;1.10;;;3.90;99.90;;;;;;5051419;28;20049;-89
2021/12/12 03:42:07;;;;;;;1.45;1.35;;;3.90;99.90;;;;;;5051174;28;20040;-89
2021/12/12 03:44:38;;;;;;;1.45;1.35;;;3.90;99.90;;;;;;5055801;28;20052;-87
2021/12/12 03:47:22;;;;;;;0.70;0.70;;;3.90;99.90;;;;;;5054903;28;20076;-88
2021/12/12 03:49:48;;;;;;;1.33;1.23;;;3.90;99.90;;;;;;5069414;28;20037;-89
2021/12/12 03:52:16;;;;;;;1.85;1.65;;;3.90;99.90;;;;;;5053114;28;20036;-88
2021/12/12 03:54:47;;;;;;;1.95;1.42;;;3.90;99.90;;;;;;5055647;28;20100;-88
2021/12/12 03:57:16;;;;;;;1.00;1.00;;;4.00;99.90;;;;;;5058270;28;20063;-87
2021/12/12 03:59:42;;;;;;;1.58;1.48;;;4.00;99.90;;;;;;5054365;28;20454;-87
2021/12/12 04:02:08;;;;;;;2.25;2.08;;;4.00;99.90;;;;;;5051354;28;20045;-87
2021/12/12 04:04:40;;;;;;;0.98;0.98;;;4.00;99.90;;;;;;5046538;28;20063;-87
2021/12/12 04:07:10;;;;;;;1.23;1.15;;;4.00;99.90;;;;;;5064263;28;20045;-88
2021/12/12 04:09:37;;;;;;;0.98;0.98;;;4.00;99.90;;;;;;5050678;28;20068;-88
2021/12/12 04:12:06;;;;;;;0.80;0.80;;;4.00;99.90;;;;;;5059423;28;20452;-89
2021/12/12 04:14:32;;;;;;;0.98;0.98;;;4.00;99.90;;;;;;5065745;28;20048;-87
2021/12/12 04:17:01;;;;;;;0.80;0.80;;;4.00;99.90;;;;;;5068741;28;20049;-88
2021/12/12 04:19:27;;;;;;;1.00;1.00;;;4.10;99.90;;;;;;5051423;28;20078;-88
2021/12/12 04:21:53;;;;;;;1.08;1.08;;;4.00;99.90;;;;;;5052270;28;20070;-88
2021/12/12 04:24:35;;;;;;;0.95;0.95;;;4.00;99.90;;;;;;5050637;28;20092;-88
2021/12/12 04:27:02;;;;;;;1.55;1.45;;;4.00;99.90;;;;;;5046280;28;20037;-88
2021/12/12 04:29:32;;;;;;;1.30;1.20;;;4.00;99.90;;;;;;5056253;28;20059;-88
2021/12/12 04:32:02;;;;;;;0.88;0.88;;;4.10;99.90;;;;;;5050970;28;20068;-88
2021/12/12 04:34:31;;;;;;;2.75;2.10;;;4.00;99.90;;;;;;5048790;28;20044;-88
2021/12/12 04:37:00;;;;;;;0.90;0.90;;;4.10;99.90;;;;;;5047759;28;20048;-87
2021/12/12 04:39:29;;;;;;;0.80;0.80;;;4.10;99.90;;;;;;5051959;28;20048;-87
2021/12/12 04:42:05;;;;;;;0.80;0.80;;;4.10;99.90;;;;;;5054273;28;20049;-88
2021/12/12 04:44:37;;;;;;;0.80;0.80;;;4.10;99.90;;;;;;5046626;28;20104;-88
2021/12/12 04:50:16;;;;;;;1.25;1.15;;;4.10;99.90;;;;;;5070251;28;20146;-88
2021/12/12 04:52:48;;;;;;;0.70;0.70;;;4.10;99.90;;;;;;5051166;28;20080;-88
2021/12/12 04:55:29;;;;;;;0.90;0.90;;;4.10;99.90;;;;;;5051185;28;20060;-87
2021/12/12 04:58:18;;;;;;;3.22;1.60;;;4.10;99.90;;;;;;5054464;28;20044;-89
2021/12/12 05:00:51;;;;;;;0.90;0.90;;;4.00;99.90;;;;;;5073862;28;20048;-88
2021/12/12 05:03:25;;;;;;;0.90;0.90;;;4.10;99.90;;;;;;5062033;28;20044;-88
2021/12/12 05:06:03;;;;;;;1.00;1.00;;;4.10;99.90;;;;;;5048993;28;20051;-88
2021/12/12 05:08:41;;;;;;;0.95;0.95;;;4.10;99.90;;;;;;5048662;28;20482;-87
2021/12/12 05:11:26;;;;;;;0.70;0.70;;;4.10;99.90;;;;;;5048920;28;20063;-88
2021/12/12 05:14:00;;;;;;;0.80;0.80;;;4.10;99.90;;;;;;5050210;28;20043;-87
2021/12/12 05:16:32;;;;;;;0.80;0.80;;;4.10;99.90;;;;;;5054895;28;20218;-88
2021/12/12 05:19:11;;;;;;;1.00;1.00;;;4.10;99.90;;;;;;5051978;28;20115;-88
2021/12/12 05:21:40;;;;;;;0.93;0.93;;;4.10;99.90;;;;;;5050134;28;20048;-88
2021/12/12 05:24:10;;;;;;;0.90;0.90;;;4.10;99.90;;;;;;5049300;28;20040;-89
2021/12/12 05:26:49;;;;;;;0.80;0.80;;;4.20;99.90;;;;;;5049546;28;20036;-88
2021/12/12 05:29:25;;;;;;;4.47;1.27;;;4.20;99.90;;;;;;5051548;28;20040;-88
2021/12/12 05:31:54;;;;;;;0.80;0.80;;;4.20;99.90;;;;;;5062269;28;20041;-87
2021/12/12 05:34:23;;;;;;;1.02;1.00;;;4.20;99.90;;;;;;5065151;28;20036;-88
2021/12/12 05:36:51;;;;;;;0.70;0.70;;;4.20;99.90;;;;;;5045764;28;20784;-88
2021/12/12 05:39:17;;;;;;;4.28;2.00;;;4.20;99.90;;;;;;5067978;28;20037;-86
2021/12/12 05:41:43;;;;;;;1.00;1.00;;;4.20;99.90;;;;;;5051128;28;20044;-86
2021/12/12 05:44:09;;;;;;;2.55;1.15;;;4.20;99.90;;;;;;5045472;28;20033;-88
2021/12/12 05:46:35;;;;;;;2.75;1.27;;;4.30;99.90;;;;;;5059317;28;20045;-88
2021/12/12 05:49:04;;;;;;;0.80;0.80;;;4.30;99.90;;;;;;5065360;28;20037;-87
2021/12/12 05:51:31;;;;;;;0.80;0.80;;;4.30;99.90;;;;;;5053310;28;20052;-89
2021/12/12 05:53:57;;;;;;;1.23;1.13;;;4.30;99.90;;;;;;5069369;28;20040;-89
2021/12/12 05:56:29;;;;;;;0.70;0.70;;;4.30;99.90;;;;;;5049528;28;20060;-89
2021/12/12 05:58:57;;;;;;;1.27;1.00;;;4.30;99.90;;;;;;5063035;28;20040;-89
2021/12/12 06:01:24;;;;;;;0.82;0.82;;;4.30;99.90;;;;;;5070066;28;20050;-89
2021/12/12 06:03:51;;;;;;;0.70;0.70;;;4.30;99.90;;;;;;5039697;28;20056;-89
2021/12/12 06:06:26;;;;;;;0.93;0.93;;;4.40;99.90;;;;;;5079035;28;20032;-89
2021/12/12 06:08:56;;;;;;;1.00;1.00;;;4.40;99.90;;;;;;5053099;28;20041;-88
2021/12/12 06:11:23;;;;;;;1.48;1.38;;;4.50;99.90;;;;;;5066765;28;20104;-88
2021/12/12 06:13:50;;;;;;;1.70;1.60;;;4.50;99.90;;;;;;5047715;28;20082;-88
2021/12/12 06:16:19;;;;;;;1.08;1.00;;;4.50;99.90;;;;;;5065640;28;20060;-88
2021/12/12 06:18:48;;;;;;;0.80;0.80;;;4.50;99.90;;;;;;5047796;28;20062;-88
2021/12/12 06:21:14;;;;;;;1.40;0.95;;;4.50;99.90;;;;;;5039349;28;20044;-88
2021/12/12 06:23:40;;;;;;;1.85;1.27;;;4.50;99.90;;;;;;5066764;28;20051;-88
2021/12/12 06:26:06;;;;;;;0.95;0.95;;;4.50;99.90;;;;;;5048824;28;20036;-88
2021/12/12 06:28:36;;;;;;;0.80;0.80;;;4.60;99.90;;;;;;5052903;28;20071;-88
2021/12/12 06:31:02;;;;;;;1.25;1.15;;;4.60;99.90;;;;;;5060975;28;20036;-88
2021/12/12 06:33:28;;;;;;;1.13;1.05;;;4.60;99.90;;;;;;5052188;28;20048;-88
2021/12/12 06:35:54;;;;;;;0.80;0.80;;;4.60;99.90;;;;;;5054126;28;20065;-88
2021/12/12 06:38:21;;;;;;;0.80;0.80;;;4.60;99.90;;;;;;5062206;28;20036;-89
2021/12/12 06:40:48;;;;;;;0.70;0.70;;;4.60;99.90;;;;;;5051495;28;20113;-88
2021/12/12 06:43:18;;;;;;;0.80;0.80;;;4.60;99.90;;;;;;5055521;28;20040;-87
2021/12/12 06:45:44;;;;;;;0.95;0.95;;;4.70;99.90;;;;;;5064699;28;20036;-88
2021/12/12 06:48:12;;;;;;;0.80;0.80;;;4.60;99.90;;;;;;5052904;28;20044;-87
2021/12/12 06:50:41;;;;;;;1.08;1.02;;;4.60;99.90;;;;;;5068705;28;20051;-88
2021/12/12 06:53:07;;;;;;;0.77;0.77;;;4.70;99.90;;;;;;5071619;28;20456;-88
2021/12/12 06:55:36;;;;;;;0.80;0.80;;;4.70;99.90;;;;;;5068444;28;20500;-88
2021/12/12 06:58:05;;;;;;;0.70;0.70;;;4.70;99.90;;;;;;5056544;28;20040;-89
2021/12/12 07:00:32;;;;;;;0.80;0.80;;;4.70;99.90;;;;;;5064099;28;20431;-90
2021/12/12 07:02:58;;;;;;;1.30;1.23;;;4.80;99.90;;;;;;5051226;28;20056;-88
2021/12/12 07:05:28;;;;;;;0.80;0.80;;;4.80;99.90;;;;;;5067162;28;20033;-89
2021/12/12 07:07:55;;;;;;;1.13;1.08;;;4.70;99.90;;;;;;5069033;28;20032;-89
2021/12/12 07:10:24;;;;;;;0.70;0.70;;;4.80;99.90;;;;;;5050593;28;20051;-88
2021/12/12 07:12:55;;;;;;;1.88;1.77;;;4.90;99.90;;;;;;5074329;28;20108;-86
2021/12/12 07:15:25;;;;;;;0.80;0.80;;;4.80;99.90;;;;;;5052721;28;20033;-88
2021/12/12 07:17:56;;;;;;;0.90;0.90;;;4.80;99.90;;;;;;5065384;28;20037;-88
2021/12/12 07:20:23;;;;;;;0.88;0.88;;;4.80;99.90;;;;;;5055572;28;20037;-88
2021/12/12 07:22:50;;;;;;;0.73;0.73;;;4.90;99.90;;;;;;5067291;28;20054;-88
2021/12/12 07:25:17;;;;;;;1.35;1.25;;;4.90;99.90;;;;;;5052323;28;20350;-87
2021/12/12 07:27:43;;;;;;;0.80;0.80;;;4.90;99.90;;;;;;5066323;28;20128;-87
2021/12/12 07:30:10;;;;;;;0.75;0.75;;;5.00;99.90;;;;;;5058976;28;20083;-87
2021/12/12 07:32:38;;;;;;;0.90;0.90;;;5.10;99.90;;;;;;5049383;28;20049;-87
2021/12/12 07:35:14;;;;;;;0.80;0.80;;;5.10;99.90;;;;;;5066037;28;20048;-87
2021/12/12 07:37:41;;;;;;;0.82;0.82;;;5.10;99.90;;;;;;5056076;28;20048;-87
2021/12/12 07:40:09;;;;;;;0.60;0.60;;;5.10;99.90;;;;;;5060144;28;20036;-87
2021/12/12 07:42:36;;;;;;;0.70;0.70;;;5.20;99.90;;;;;;5052716;28;20055;-88
2021/12/12 07:45:04;;;;;;;0.80;0.80;;;5.20;99.90;;;;;;5053450;28;20032;-87
2021/12/12 07:47:30;;;;;;;0.88;0.88;;;5.20;99.90;;;;;;5048671;28;20044;-88
2021/12/12 07:49:56;;;;;;;0.77;0.77;;;5.20;99.90;;;;;;5065994;28;20234;-85
2021/12/12 07:52:26;;;;;;;0.90;0.90;;;5.20;99.90;;;;;;5068743;28;20036;-88
2021/12/12 07:54:53;;;;;;;0.80;0.80;;;5.30;99.90;;;;;;5050863;28;20041;-87
2021/12/12 07:57:22;;;;;;;0.90;0.90;;;5.30;99.90;;;;;;5057818;28;20051;-87
2021/12/12 07:59:49;;;;;;;1.40;1.10;;;5.30;99.90;;;;;;5072792;28;20032;-87
2021/12/12 08:02:16;;;;;;;0.88;0.88;;;5.40;99.90;;;;;;5041399;28;20037;-88
2021/12/12 08:04:43;;;;;;;0.70;0.70;;;5.40;99.90;;;;;;5056965;28;20488;-88
2021/12/12 08:07:15;;;;;;;1.10;1.00;;;5.50;99.90;;;;;;5076446;28;20067;-89
2021/12/12 08:09:42;;;;;;;0.80;0.80;;;5.50;99.90;;;;;;5077213;28;20104;-88
2021/12/12 08:12:14;;;;;;;0.80;0.80;;;5.50;99.90;;;;;;5048956;28;20037;-90
2021/12/12 08:14:41;;;;;;;0.70;0.70;;;5.50;99.90;;;;;;5065361;28;20399;-89
2021/12/12 08:17:10;;;;;;;1.20;1.05;;;5.50;99.90;;;;;;5064401;28;20051;-88
2021/12/12 08:19:36;;;;;;;0.75;0.75;;;5.60;99.90;;;;;;5045222;28;20036;-87
2021/12/12 08:22:08;;;;;;;0.80;0.80;;;5.60;99.90;;;;;;5069334;28;20133;-88
2021/12/12 08:24:35;;;;;;;0.60;0.60;;;5.60;99.90;;;;;;5048156;28;20404;-87
2021/12/12 08:27:04;;;;;;;0.80;0.80;;;5.60;99.90;;;;;;5053646;28;20032;-88
2021/12/12 08:29:31;;;;;;;0.93;0.90;;;5.60;99.90;;;;;;5051050;28;20051;-88
2021/12/12 08:31:57;;;;;;;0.80;0.80;;;5.60;99.90;;;;;;5047669;28;20087;-88
2021/12/12 08:34:26;;;;;;;0.88;0.88;;;5.70;99.90;;;;;;5049002;28;20041;-88
2021/12/12 08:36:54;;;;;;;1.83;1.13;;;5.60;99.90;;;;;;5049929;28;20041;-87
2021/12/12 08:39:20;;;;;;;0.70;0.70;;;5.70;99.90;;;;;;5064306;28;20055;-86
2021/12/12 08:41:50;;;;;;;0.95;0.95;;;5.80;99.90;;;;;;5064704;28;20116;-88
2021/12/12 08:44:17;;;;;;;0.80;0.80;;;5.70;99.90;;;;;;5044795;28;20032;-88
2021/12/12 08:46:45;;;;;;;0.73;0.73;;;5.80;99.90;;;;;;5048883;28;20075;-86
2021/12/12 08:49:14;;;;;;;1.67;1.33;;;5.80;99.90;;;;;;5045523;28;20080;-86
2021/12/12 08:51:49;;;;;;;1.13;1.00;;;5.80;99.90;;;;;;5062787;28;20052;-86
2021/12/12 08:54:23;;;;;;;1.25;1.15;;;5.80;99.90;;;;;;5065380;28;20067;-86
2021/12/12 08:56:55;;;;;;;0.60;0.60;;;5.90;99.90;;;;;;5041956;28;20044;-87
2021/12/12 08:59:25;;;;;;;0.70;0.70;;;5.90;99.90;;;;;;5048647;28;20051;-85
2021/12/12 09:01:54;;;;;;;1.00;1.00;;;5.90;99.90;;;;;;5046228;28;20036;-87
2021/12/12 09:04:20;;;;;;;0.80;0.80;;;5.90;99.90;;;;;;5046700;28;20052;-86
2021/12/12 09:07:14;;;;;;;1.27;1.17;;;5.90;99.90;;;;;;5046581;28;20052;-87
2021/12/12 09:09:51;;;;;;;0.80;0.80;;;6.00;99.90;;;;;;5047706;28;20488;-89
2021/12/12 09:12:24;;;;;;;1.20;1.13;;;6.00;99.90;;;;;;5039103;28;20521;-88
2021/12/12 09:14:54;;;;;;;1.17;1.10;;;6.10;99.90;;;;;;5053372;28;20054;-88
2021/12/12 09:17:24;;;;;;;0.90;0.90;;;6.10;99.90;;;;;;5050837;28;20054;-88
2021/12/12 09:20:04;;;;;;;1.63;1.48;;;6.10;99.90;;;;;;5050143;28;20068;-87
2021/12/12 09:22:41;;;;;;;0.80;0.80;;;6.10;99.90;;;;;;5046705;28;20040;-89
2021/12/12 09:25:34;;;;;;;1.23;1.10;;;6.10;99.90;;;;;;5057995;28;20105;-85
2021/12/12 09:28:35;;;;;;;1.00;0.90;;;6.20;99.90;;;;;;5060749;28;20036;-87
2021/12/12 09:31:06;;;;;;;0.80;0.77;;;6.20;99.90;;;;;;5052106;28;20048;-86
2021/12/12 09:34:08;;;;;;;1.27;1.00;;;6.20;99.90;;;;;;5044320;28;20427;-85
2021/12/12 09:36:38;;;;;;;1.25;1.15;;;6.20;99.90;;;;;;5035864;28;20056;-86
2021/12/12 09:39:24;;;;;;;0.80;0.80;;;6.30;99.90;;;;;;5043943;28;20051;-87
2021/12/12 09:42:15;;;;;;;1.02;0.93;;;6.30;99.90;;;;;;5072246;28;20055;-84
2021/12/12 09:44:49;;;;;;;2.72;1.50;;;6.30;99.90;;;;;;5038405;28;20112;-87
2021/12/12 09:47:56;;;;;;;0.77;0.77;;;6.30;99.90;;;;;;5039123;28;20076;-87
2021/12/12 09:53:47;;;;;;;1.10;1.00;;;6.40;99.90;;;;;;5059584;28;20047;-88
2021/12/12 09:56:39;;;;;;;1.50;1.40;;;6.40;99.90;;;;;;5064254;28;20140;-85
2021/12/12 09:59:08;;;;;;;0.73;0.73;;;6.50;99.90;;;;;;5042830;28;20087;-86
2021/12/12 10:01:42;;;;;;;0.90;0.90;;;6.50;99.90;;;;;;5071716;28;20388;-85
2021/12/12 10:04:08;;;;;;;1.50;1.25;;;6.50;99.90;;;;;;5060069;28;20489;-85
2021/12/12 10:06:46;;;;;;;2.58;1.50;;;6.60;99.90;;;;;;5043285;28;20051;-86
2021/12/12 10:09:20;;;;;;;0.98;0.98;;;6.60;99.90;;;;;;5067770;28;20082;-86
2021/12/12 10:11:52;;;;;;;1.23;1.15;;;6.60;99.90;;;;;;5047279;28;20074;-86
2021/12/12 10:14:29;;;;;;;3.15;1.50;;;6.70;99.90;;;;;;5048522;28;20048;-86
2021/12/12 10:17:12;;;;;;;1.73;1.58;;;6.70;99.90;;;;;;5055013;28;20479;-87
2021/12/12 10:19:41;;;;;;;3.73;1.30;;;6.70;99.90;;;;;;5039959;28;20056;-87
2021/12/12 10:22:15;;;;;;;0.75;0.75;;;6.80;99.90;;;;;;5032019;28;20275;-86
2021/12/12 10:25:04;;;;;;;0.93;0.93;;;6.80;99.90;;;;;;5032946;28;20037;-86
2021/12/12 10:27:45;;;;;;;1.30;1.10;;;6.80;99.90;;;;;;5044778;28;20041;-86
2021/12/12 10:30:24;;;;;;;1.65;1.55;;;6.90;99.90;;;;;;5047398;28;20029;-85
2021/12/12 10:33:18;;;;;;;0.73;0.73;;;7.00;99.90;;;;;;5060775;28;20048;-86
2021/12/12 10:36:04;;;;;;;1.10;1.02;;;7.00;99.90;;;;;;5053974;28;20098;-88
2021/12/12 10:38:46;;;;;;;2.22;2.05;;;7.00;99.90;;;;;;5050133;28;20110;-87
2021/12/12 10:41:22;;;;;;;1.33;1.23;;;7.10;99.90;;;;;;5035539;28;20071;-87
2021/12/12 10:43:58;;;;;;;0.98;0.98;;;7.10;99.90;;;;;;5045890;28;20041;-88
2021/12/12 10:46:42;;;;;;;0.93;0.93;;;7.10;99.90;;;;;;5033808;28;20037;-87
2021/12/12 10:49:17;;;;;;;0.98;0.98;;;7.20;99.90;;;;;;5030893;28;20033;-88
2021/12/12 10:51:52;;;;;;;1.58;1.25;;;7.20;99.90;;;;;;5055127;28;20067;-88
2021/12/12 10:54:26;;;;;;;0.80;0.80;;;7.30;99.90;;;;;;5063297;28;20052;-87
2021/12/12 10:57:00;;;;;;;1.10;1.05;;;7.30;99.90;;;;;;5047907;28;20041;-88
2021/12/12 10:59:28;;;;;;;;;;;7.40;99.90;;;;;;5057151;28;20047;-87
2021/12/12 11:02:04;;;;;;;1.52;1.17;;;7.40;99.90;;;;;;5045273;28;19936;-88
2021/12/12 11:04:51;;;;;;;2.40;0.98;;;7.40;99.90;;;;;;5064957;28;20044;-88
2021/12/12 11:07:25;;;;;;;3.05;1.88;;;7.50;99.90;;;;;;5056180;28;20039;-88
2021/12/12 11:10:05;;;;;;;2.38;1.80;;;7.50;99.90;;;;;;5048704;28;20127;-88
2021/12/12 11:12:44;;;;;;;3.13;1.38;;;7.50;99.90;;;;;;5036467;28;20100;-88
2021/12/12 11:15:41;;;;;;;0.88;0.88;;;7.60;99.90;;;;;;5047164;28;20066;-88
2021/12/12 11:18:20;;;;;;;1.58;1.27;;;7.60;99.90;;;;;;5052948;28;20044;-88
2021/12/12 11:20:54;;;;;;;0.60;0.60;;;7.70;99.90;;;;;;5054354;28;20330;-87
2021/12/12 11:23:32;;;;;;;0.70;0.70;;;7.70;99.90;;;;;;5086137;28;20067;-88
2021/12/12 11:26:05;;;;;;;1.63;1.13;;;7.80;99.90;;;;;;5066686;28;20039;-89
2021/12/12 11:29:05;;;;;;;0.85;0.85;;;7.80;99.90;;;;;;5036713;28;20040;-89
2021/12/12 11:31:32;;;;;;;1.17;1.17;;;7.90;99.90;;;;;;5047560;28;20044;-88
2021/12/12 11:33:58;;;;;;;0.70;0.70;;;8.00;99.90;;;;;;5048374;28;20040;-87
2021/12/12 11:36:37;;;;;;;2.42;1.85;;;8.10;99.90;;;;;;5062929;28;20486;-88
2021/12/12 11:39:31;;;;;;;0.88;0.88;;;8.10;99.90;;;;;;5062095;28;20040;-88
2021/12/12 11:42:23;;;;;;;0.95;0.90;;;8.10;99.90;;;;;;5061475;28;20037;-88
2021/12/12 11:45:17;;;;;;;0.70;0.70;;;8.10;99.90;;;;;;5068095;28;20135;-88
2021/12/12 11:47:53;;;;;;;;;;;8.10;99.90;;;;;;5047184;28;20048;-88
2021/12/12 11:50:36;;;;;;;1.63;1.17;;;8.20;99.90;;;;;;5052511;28;19920;-88
2021/12/12 11:53:23;;;;;;;0.75;0.75;;;8.10;99.90;;;;;;5057635;28;20103;-88
2021/12/12 11:56:01;;;;;;;0.98;0.95;;;8.20;99.90;;;;;;5061825;28;20053;-88
2021/12/12 11:59:04;;;;;;;0.80;0.80;;;8.20;99.90;;;;;;5053990;28;20041;-88
2021/12/12 12:01:46;;;;;;;2.90;1.50;;;8.20;99.90;;;;;;5052601;28;20184;-89
2021/12/12 12:04:32;;;;;;;1.80;1.25;;;8.20;99.90;;;;;;5049803;28;20033;-88
2021/12/12 12:07:20;;;;;;;1.35;1.25;;;8.20;99.90;;;;;;5050219;28;20051;-88
2021/12/12 12:09:50;;;;;;;0.80;0.80;;;8.20;99.90;;;;;;5057994;28;20044;-88
2021/12/12 12:12:42;;;;;;;0.60;0.60;;;8.30;99.90;;;;;;5053255;28;20062;-88
2021/12/12 12:15:10;;;;;;;2.53;0.88;;;8.30;99.90;;;;;;5044445;28;20041;-88
2021/12/12 12:17:48;;;;;;;1.00;0.90;;;8.30;99.90;;;;;;5054466;28;20044;-89
2021/12/12 12:20:49;;;;;;;1.75;1.55;;;8.30;99.90;;;;;;5082972;28;20542;-88
2021/12/12 12:23:20;;;;;;;1.27;1.17;;;8.30;99.90;;;;;;5019110;28;20420;-89
2021/12/12 12:28:52;;;;;;;1.83;1.25;;;8.40;99.90;;;;;;5061124;28;20053;-88
2021/12/12 12:31:33;;;;;;;1.45;1.35;;;8.40;99.90;;;;;;5050830;28;20270;-88
2021/12/12 12:34:21;;;;;;;0.88;0.88;;;8.50;99.90;;;;;;5043929;28;20049;-89
2021/12/12 12:37:25;;;;;;;0.60;0.60;;;8.60;99.90;;;;;;5052921;28;20062;-89
2021/12/12 12:39:50;;;;;;;1.65;1.38;;;8.60;99.90;;;;;;5058591;28;20044;-88
2021/12/12 12:42:57;;;;;;;5.97;1.27;;;8.60;99.90;;;;;;5053277;28;20043;-88
2021/12/12 12:46:01;;;;;;;1.02;0.93;;;8.60;99.90;;;;;;5057999;28;20085;-87
2021/12/12 12:48:45;;;;;;;0.93;0.85;;;8.70;99.90;;;;;;5046596;28;20358;-87
2021/12/12 12:51:10;;;;;;;;;;;8.70;99.90;;;;;;5048225;28;20052;-87
2021/12/12 12:54:02;;;;;;;0.93;0.93;;;8.60;99.90;;;;;;5066653;28;19987;-87
2021/12/12 12:57:19;;;;;;;1.85;0.90;;;8.60;99.90;;;;;;5048402;28;20120;-88
2021/12/12 13:00:08;;;;;;;1.33;1.23;;;8.60;99.90;;;;;;5058666;28;20108;-86
2021/12/12 13:02:52;;;;;;;1.40;1.33;;;8.60;99.90;;;;;;5055517;28;20452;-87
2021/12/12 13:05:30;;;;;;;;;;;8.70;99.90;;;;;;5062837;28;20050;-86
2021/12/12 13:08:30;;;;;;;0.80;0.80;;;8.70;99.90;;;;;;5053260;28;19920;-87
2021/12/12 13:10:59;;;;;;;0.85;0.85;;;8.60;99.90;;;;;;5053733;28;20076;-89
2021/12/12 13:13:31;;;;;;;1.40;1.30;;;8.70;99.90;;;;;;5064238;28;20064;-88
2021/12/12 13:16:05;;;;;;;0.85;0.85;;;8.70;99.90;;;;;;5056480;28;20071;-88
2021/12/12 13:18:54;;;;;;;0.60;0.60;;;8.70;99.90;;;;;;5047038;28;20040;-88
2021/12/12 13:21:48;;;;;;;0.80;0.80;;;8.70;99.90;;;;;;5064173;28;20131;-88
2021/12/12 13:24:40;;;;;;;1.42;1.33;;;8.70;99.90;;;;;;5049536;28;20039;-88
2021/12/12 13:27:29;;;;;;;0.80;0.80;;;8.70;99.90;;;;;;5029919;28;20063;-89
2021/12/12 13:30:06;;;;;;;0.60;0.60;;;8.70;99.90;;;;;;5052677;28;20037;-88
2021/12/12 13:32:45;;;;;;;0.77;0.77;;;8.70;99.90;;;;;;5045877;28;20535;-88
2021/12/12 13:35:25;;;;;;;0.85;0.85;;;8.70;99.90;;;;;;5050440;28;20126;-88
2021/12/12 13:37:57;;;;;;;0.65;0.65;;;8.70;99.90;;;;;;5053958;28;20093;-88
2021/12/12 13:40:28;;;;;;;0.73;0.73;;;8.80;99.90;;;;;;5044332;28;20028;-88
2021/12/12 13:43:19;;;;;;;1.00;1.00;;;8.80;99.90;;;;;;5046581;28;20045;-89
2021/12/12 13:45:56;;;;;;;1.20;0.98;;;8.90;99.90;;;;;;5039445;28;20086;-88
2021/12/12 13:48:41;;;;;;;0.60;0.60;;;8.90;99.90;;;;;;5046706;28;20063;-88
2021/12/12 13:51:25;;;;;;;0.60;0.60;;;8.90;99.90;;;;;;5063802;28;20197;-87
2021/12/12 13:53:50;;;;;;;;;;;8.90;99.90;;;;;;5041625;28;20107;-88
2021/12/12 13:56:55;;;;;;;0.75;0.75;;;9.00;99.90;;;;;;5048444;28;19934;-88
2021/12/12 13:59:39;;;;;;;0.80;0.80;;;9.00;99.90;;;;;;5050304;28;20100;-89